createdAt,value
2022-09-09T00:02:34.521Z,97722.00
2022-09-09T00:05:27.753Z,97734.00
2022-09-09T00:08:05.007Z,97724.00
2022-09-09T00:10:42.764Z,97724.00
2022-09-09T00:13:39.029Z,97731.00
2022-09-09T00:16:25.000Z,97720.00
2022-09-09T00:19:34.469Z,97722.00
2022-09-09T00:22:21.022Z,97719.00
2022-09-09T00:25:04.112Z,97723.00
2022-09-09T00:27:48.656Z,97719.00
2022-09-09T00:30:33.277Z,97713.00
2022-09-09T00:33:15.882Z,97710.00
2022-09-09T00:35:58.428Z,97715.00
2022-09-09T00:38:39.301Z,97710.00
2022-09-09T00:41:30.019Z,97716.00
2022-09-09T00:44:36.304Z,97714.00
2022-09-09T00:47:35.250Z,97714.00
2022-09-09T00:50:18.129Z,97713.00
2022-09-09T00:53:30.886Z,97712.00
2022-09-09T00:56:22.592Z,97722.00
2022-09-09T00:59:37.290Z,97719.00
2022-09-09T01:02:31.317Z,97728.00
2022-09-09T01:05:23.250Z,97721.00
2022-09-09T01:08:03.521Z,97713.00
2022-09-09T01:10:57.198Z,97715.00
2022-09-09T01:13:37.361Z,97711.00
2022-09-09T01:16:17.924Z,97708.00
2022-09-09T01:18:54.346Z,97710.00
2022-09-09T01:21:57.690Z,97705.00
2022-09-09T01:24:55.021Z,97705.00
2022-09-09T01:27:57.649Z,97714.00
2022-09-09T01:30:36.263Z,97716.00
2022-09-09T01:33:18.907Z,97724.00
2022-09-09T01:36:06.324Z,97726.00
2022-09-09T01:38:47.239Z,97729.00
2022-09-09T01:41:23.043Z,97720.00
2022-09-09T01:44:07.159Z,97725.00
2022-09-09T01:46:43.929Z,97724.00
2022-09-09T01:49:24.437Z,97721.00
2022-09-09T01:51:59.979Z,97721.00
2022-09-09T01:54:40.594Z,97718.00
2022-09-09T01:57:26.834Z,97713.00
2022-09-09T02:00:12.863Z,97721.00
2022-09-09T02:03:10.171Z,97730.00
2022-09-09T02:06:38.578Z,97717.00
2022-09-09T02:09:27.401Z,97705.00
2022-09-09T02:12:18.403Z,97695.00
2022-09-09T02:15:08.905Z,97706.00
2022-09-09T02:17:54.853Z,97726.00
2022-09-09T02:20:35.121Z,97732.00
2022-09-09T02:23:13.841Z,97722.00
2022-09-09T02:25:52.883Z,97729.00
2022-09-09T02:28:33.697Z,97726.00
2022-09-09T02:31:08.902Z,97709.00
2022-09-09T02:34:01.974Z,97717.00
2022-09-09T02:36:40.423Z,97734.00
2022-09-09T02:39:15.699Z,97732.00
2022-09-09T02:41:51.071Z,97734.00
2022-09-09T02:44:27.401Z,97717.00
2022-09-09T02:47:37.627Z,97724.00
2022-09-09T02:50:34.173Z,97722.00
2022-09-09T02:53:21.687Z,97709.00
2022-09-09T02:56:05.358Z,97717.00
2022-09-09T02:58:44.657Z,97711.00
2022-09-09T03:01:20.169Z,97704.00
2022-09-09T03:03:56.023Z,97708.00
2022-09-09T03:06:32.070Z,97693.00
2022-09-09T03:09:15.614Z,97696.00
2022-09-09T03:11:51.199Z,97700.00
2022-09-09T03:14:26.889Z,97694.00
2022-09-09T03:17:03.417Z,97688.00
2022-09-09T03:19:45.009Z,97689.00
2022-09-09T03:22:22.286Z,97695.00
2022-09-09T03:24:57.622Z,97703.00
2022-09-09T03:27:32.663Z,97693.00
2022-09-09T03:30:08.499Z,97699.00
2022-09-09T03:32:48.336Z,97696.00
2022-09-09T03:35:23.952Z,97703.00
2022-09-09T03:37:58.970Z,97701.00
2022-09-09T03:40:34.961Z,97708.00
2022-09-09T03:43:10.815Z,97703.00
2022-09-09T03:45:49.372Z,97704.00
2022-09-09T03:48:26.656Z,97704.00
2022-09-09T03:51:02.333Z,97712.00
2022-09-09T03:53:39.470Z,97703.00
2022-09-09T03:56:14.524Z,97714.00
2022-09-09T03:58:49.475Z,97709.00
2022-09-09T04:01:24.450Z,97713.00
2022-09-09T04:03:59.500Z,97705.00
2022-09-09T04:06:34.866Z,97716.00
2022-09-09T04:09:10.123Z,97715.00
2022-09-09T04:11:46.445Z,97713.00
2022-09-09T04:14:23.074Z,97717.00
2022-09-09T04:16:59.268Z,97718.00
2022-09-09T04:19:34.685Z,97714.00
2022-09-09T04:22:10.675Z,97711.00
2022-09-09T04:24:48.762Z,97729.00
2022-09-09T04:27:25.813Z,97729.00
2022-09-09T04:30:00.923Z,97734.00
2022-09-09T04:32:39.355Z,97733.00
2022-09-09T04:35:14.846Z,97730.00
2022-09-09T04:37:50.722Z,97729.00
2022-09-09T04:40:26.211Z,97733.00
2022-09-09T04:43:05.713Z,97729.00
2022-09-09T04:45:41.460Z,97738.00
2022-09-09T04:48:16.684Z,97732.00
2022-09-09T04:51:01.276Z,97733.00
2022-09-09T04:53:39.019Z,97733.00
2022-09-09T04:56:17.056Z,97723.00
2022-09-09T04:58:57.722Z,97734.00
2022-09-09T05:01:42.517Z,97727.00
2022-09-09T05:04:17.829Z,97730.00
2022-09-09T05:06:52.742Z,97729.00
2022-09-09T05:09:28.029Z,97739.00
2022-09-09T05:12:03.956Z,97743.00
2022-09-09T05:14:43.279Z,97741.00
2022-09-09T05:17:19.503Z,97747.00
2022-09-09T05:19:54.876Z,97743.00
2022-09-09T05:22:29.754Z,97747.00
2022-09-09T05:25:05.559Z,97749.00
2022-09-09T05:27:40.603Z,97745.00
2022-09-09T05:30:16.141Z,97759.00
2022-09-09T05:32:51.226Z,97761.00
2022-09-09T05:35:28.131Z,97755.00
2022-09-09T05:38:03.154Z,97759.00
2022-09-09T05:40:38.309Z,97752.00
2022-09-09T05:43:13.230Z,97761.00
2022-09-09T05:45:49.619Z,97748.00
2022-09-09T05:48:25.000Z,97749.00
2022-09-09T05:51:00.970Z,97758.00
2022-09-09T05:53:36.515Z,97756.00
2022-09-09T05:56:19.426Z,97757.00
2022-09-09T05:58:56.141Z,97750.00
2022-09-09T06:01:35.499Z,97766.00
2022-09-09T06:04:11.115Z,97765.00
2022-09-09T06:06:47.966Z,97776.00
2022-09-09T06:09:26.359Z,97770.00
2022-09-09T06:12:02.443Z,97762.00
2022-09-09T06:14:44.411Z,97765.00
2022-09-09T06:17:21.523Z,97767.00
2022-09-09T06:19:56.811Z,97759.00
2022-09-09T06:22:31.870Z,97768.00
2022-09-09T06:25:09.463Z,97775.00
2022-09-09T06:27:50.736Z,97773.00
2022-09-09T06:30:25.927Z,97776.00
2022-09-09T06:33:02.105Z,97782.00
2022-09-09T06:35:37.158Z,97785.00
2022-09-09T06:38:13.107Z,97768.00
2022-09-09T06:40:56.573Z,97775.00
2022-09-09T06:43:33.158Z,97778.00
2022-09-09T06:46:16.030Z,97770.00
2022-09-09T06:48:51.327Z,97777.00
2022-09-09T06:51:36.678Z,97780.00
2022-09-09T06:54:13.256Z,97785.00
2022-09-09T06:56:51.493Z,97784.00
2022-09-09T06:59:31.876Z,97781.00
2022-09-09T07:02:09.350Z,97787.00
2022-09-09T07:04:44.281Z,97783.00
2022-09-09T07:07:19.967Z,97787.00
2022-09-09T07:09:55.070Z,97779.00
2022-09-09T07:12:30.106Z,97785.00
2022-09-09T07:15:08.350Z,97778.00
2022-09-09T07:17:43.317Z,97784.00
2022-09-09T07:20:18.436Z,97786.00
2022-09-09T07:22:57.312Z,97778.00
2022-09-09T07:25:32.381Z,97785.00
2022-09-09T07:28:09.568Z,97780.00
2022-09-09T07:30:44.827Z,97781.00
2022-09-09T07:33:21.504Z,97792.00
2022-09-09T07:36:16.310Z,97780.00
2022-09-09T07:38:56.056Z,97778.00
2022-09-09T07:41:39.477Z,97783.00
2022-09-09T07:44:27.873Z,97782.00
2022-09-09T07:47:10.429Z,97780.00
2022-09-09T07:49:52.401Z,97784.00
2022-09-09T07:52:35.231Z,97781.00
2022-09-09T07:55:13.095Z,97782.00
2022-09-09T07:57:48.263Z,97796.00
2022-09-09T08:00:24.698Z,97796.00
2022-09-09T08:03:04.904Z,97795.00
2022-09-09T08:05:40.635Z,97781.00
2022-09-09T08:08:17.669Z,97779.00
2022-09-09T08:10:53.202Z,97789.00
2022-09-09T08:13:29.051Z,97795.00
2022-09-09T08:16:23.669Z,97791.00
2022-09-09T08:19:00.673Z,97791.00
2022-09-09T08:21:39.973Z,97788.00
2022-09-09T08:24:16.231Z,97786.00
2022-09-09T08:26:57.664Z,97803.00
2022-09-09T08:29:33.280Z,97810.00
2022-09-09T08:32:08.600Z,97818.00
2022-09-09T08:34:46.562Z,97806.00
2022-09-09T08:37:26.430Z,97806.00
2022-09-09T08:40:03.828Z,97801.00
2022-09-09T08:42:51.577Z,97800.00
2022-09-09T08:46:10.661Z,97799.00
2022-09-09T08:49:20.553Z,97791.00
2022-09-09T08:51:57.222Z,97790.00
2022-09-09T08:54:51.699Z,97803.00
2022-09-09T08:57:30.213Z,97794.00
2022-09-09T09:00:08.667Z,97796.00
2022-09-09T09:03:15.688Z,97809.00
2022-09-09T09:06:15.149Z,97792.00
2022-09-09T09:09:03.937Z,97796.00
2022-09-09T09:12:20.831Z,97804.00
2022-09-09T09:14:59.775Z,97797.00
2022-09-09T09:17:38.570Z,97790.00
2022-09-09T09:20:17.533Z,97793.00
2022-09-09T09:22:59.206Z,97798.00
2022-09-09T09:25:41.627Z,97801.00
2022-09-09T09:28:33.855Z,97803.00
2022-09-09T09:31:15.763Z,97806.00
2022-09-09T09:33:57.048Z,97796.00
2022-09-09T09:36:56.730Z,97803.00
2022-09-09T09:42:35.244Z,97814.00
2022-09-09T09:45:34.170Z,97797.00
2022-09-09T09:48:13.848Z,97798.00
2022-09-09T09:50:58.727Z,97792.00
2022-09-09T09:53:38.109Z,97792.00
2022-09-09T09:56:15.144Z,97791.00
2022-09-09T09:58:53.707Z,97786.00
2022-09-09T10:01:36.504Z,97788.00
2022-09-09T10:04:27.215Z,97779.00
2022-09-09T10:07:22.747Z,97773.00
2022-09-09T10:09:58.848Z,97769.00
2022-09-09T10:13:15.430Z,97768.00
2022-09-09T10:15:56.378Z,97767.00
2022-09-09T10:19:02.390Z,97777.00
2022-09-09T10:21:58.859Z,97762.00
2022-09-09T10:25:00.305Z,97746.00
2022-09-09T10:28:11.560Z,97767.00
2022-09-09T10:31:16.471Z,97745.00
2022-09-09T10:34:22.032Z,97759.00
2022-09-09T10:36:57.393Z,97751.00
2022-09-09T10:39:43.054Z,97765.00
2022-09-09T10:42:29.221Z,97765.00
2022-09-09T10:45:22.769Z,97753.00
2022-09-09T10:48:35.311Z,97745.00
2022-09-09T10:51:28.154Z,97745.00
2022-09-09T10:54:48.062Z,97737.00
2022-09-09T10:57:40.746Z,97737.00
2022-09-09T11:00:24.397Z,97755.00
2022-09-09T11:03:05.121Z,97750.00
2022-09-09T11:05:47.603Z,97755.00
2022-09-09T11:08:27.457Z,97750.00
2022-09-09T11:11:40.974Z,97755.00
2022-09-09T11:14:35.437Z,97775.00
2022-09-09T11:17:27.964Z,97787.00
2022-09-09T11:20:03.488Z,97784.00
2022-09-09T11:22:48.430Z,97782.00
2022-09-09T11:26:05.800Z,97778.00
2022-09-09T11:29:40.562Z,97808.00
2022-09-09T11:33:18.475Z,97812.00
2022-09-09T11:36:11.514Z,97822.00
2022-09-09T11:38:49.631Z,97821.00
2022-09-09T11:41:24.612Z,97832.00
2022-09-09T11:43:59.709Z,97813.00
2022-09-09T11:46:39.821Z,97804.00
2022-09-09T11:49:27.746Z,97818.00
2022-09-09T11:52:27.743Z,97803.00
2022-09-09T11:55:32.677Z,97801.00
2022-09-09T11:58:18.179Z,97796.00
2022-09-09T12:00:54.146Z,97791.00
2022-09-09T12:03:48.696Z,97787.00
2022-09-09T12:06:33.066Z,97777.00
2022-09-09T12:09:27.063Z,97779.00
2022-09-09T12:12:14.669Z,97783.00
2022-09-09T12:15:09.112Z,97798.00
2022-09-09T12:17:46.388Z,97796.00
2022-09-09T12:20:32.642Z,97781.00
2022-09-09T12:23:31.584Z,97780.00
2022-09-09T12:26:49.969Z,97781.00
2022-09-09T12:30:05.653Z,97775.00
2022-09-09T12:32:40.756Z,97777.00
2022-09-09T12:35:23.770Z,97769.00
2022-09-09T12:38:03.875Z,97769.00
2022-09-09T12:40:40.182Z,97782.00
2022-09-09T12:43:24.865Z,97778.00
2022-09-09T12:46:05.262Z,97777.00
2022-09-09T12:48:45.460Z,97777.00
2022-09-09T12:51:32.995Z,97767.00
2022-09-09T12:54:15.129Z,97759.00
2022-09-09T12:56:50.859Z,97746.00
2022-09-09T12:59:38.814Z,97743.00
2022-09-09T13:02:25.892Z,97742.00
2022-09-09T13:05:23.530Z,97749.00
2022-09-09T13:08:04.536Z,97737.00
2022-09-09T13:10:58.708Z,97756.00
2022-09-09T13:13:42.917Z,97739.00
2022-09-09T13:16:33.089Z,97727.00
2022-09-09T13:19:15.927Z,97735.00
2022-09-09T13:21:51.671Z,97726.00
2022-09-09T13:24:33.832Z,97718.00
2022-09-09T13:27:29.326Z,97720.00
2022-09-09T13:30:23.894Z,97739.00
2022-09-09T13:33:18.360Z,97727.00
2022-09-09T13:36:00.133Z,97731.00
2022-09-09T13:38:53.071Z,97712.00
2022-09-09T13:41:34.872Z,97718.00
2022-09-09T13:44:25.267Z,97716.00
2022-09-09T13:47:23.618Z,97718.00
2022-09-09T13:49:58.854Z,97707.00
2022-09-09T13:52:33.877Z,97706.00
2022-09-09T13:55:11.099Z,97708.00
2022-09-09T13:58:01.796Z,97694.00
2022-09-09T14:00:37.450Z,97709.00
2022-09-09T14:03:12.600Z,97697.00
2022-09-09T14:05:48.130Z,97694.00
2022-09-09T14:08:27.243Z,97696.00
2022-09-09T14:11:02.230Z,97707.00
2022-09-09T14:13:38.502Z,97724.00
2022-09-09T14:16:13.508Z,97706.00
2022-09-09T14:18:49.258Z,97709.00
2022-09-09T14:21:25.092Z,97704.00
2022-09-09T14:24:00.075Z,97697.00
2022-09-09T14:26:35.061Z,97700.00
2022-09-09T14:29:10.122Z,97697.00
2022-09-09T14:31:45.087Z,97696.00
2022-09-09T14:34:20.067Z,97698.00
2022-09-09T14:36:55.823Z,97697.00
2022-09-09T14:39:30.930Z,97700.00
2022-09-09T14:42:06.577Z,97692.00
2022-09-09T14:44:41.761Z,97702.00
2022-09-09T14:47:16.749Z,97697.00
2022-09-09T14:49:51.700Z,97697.00
2022-09-09T14:52:26.849Z,97699.00
2022-09-09T14:55:01.790Z,97706.00
2022-09-09T14:57:36.825Z,97708.00
2022-09-09T15:00:13.261Z,97705.00
2022-09-09T15:02:48.505Z,97717.00
2022-09-09T15:05:25.248Z,97718.00
2022-09-09T15:08:00.164Z,97710.00
2022-09-09T15:10:35.171Z,97718.00
2022-09-09T15:13:10.139Z,97716.00
2022-09-09T15:15:45.163Z,97743.00
2022-09-09T15:18:20.127Z,97725.00
2022-09-09T15:20:55.632Z,97734.00
2022-09-09T15:23:33.742Z,97728.00
2022-09-09T15:26:09.738Z,97745.00
2022-09-09T15:28:48.219Z,97727.00
2022-09-09T15:31:30.084Z,97724.00
2022-09-09T15:34:07.908Z,97722.00
2022-09-09T15:36:47.052Z,97717.00
2022-09-09T15:39:22.372Z,97708.00
2022-09-09T15:41:58.180Z,97714.00
2022-09-09T15:44:41.093Z,97716.00
2022-09-09T15:47:16.335Z,97724.00
2022-09-09T15:49:51.630Z,97722.00
2022-09-09T15:52:26.659Z,97724.00
2022-09-09T15:55:01.644Z,97718.00
2022-09-09T15:57:37.109Z,97711.00
2022-09-09T16:00:14.170Z,97716.00
2022-09-09T16:02:49.853Z,97721.00
2022-09-09T16:05:24.951Z,97717.00
2022-09-09T16:07:59.955Z,97716.00
2022-09-09T16:10:34.912Z,97739.00
2022-09-09T16:13:09.904Z,97730.00
2022-09-09T16:15:44.922Z,97740.00
2022-09-09T16:18:21.486Z,97739.00
2022-09-09T16:20:56.823Z,97744.00
2022-09-09T16:23:33.654Z,97749.00
2022-09-09T16:26:13.637Z,97746.00
2022-09-09T16:28:49.315Z,97779.00
2022-09-09T16:31:25.319Z,97776.00
2022-09-09T16:34:00.449Z,97779.00
2022-09-09T16:36:40.039Z,97780.00
2022-09-09T16:39:19.031Z,97781.00
2022-09-09T16:41:54.021Z,97796.00
2022-09-09T16:44:29.090Z,97783.00
2022-09-09T16:47:04.344Z,97786.00
2022-09-09T16:49:39.541Z,97786.00
2022-09-09T16:52:18.400Z,97795.00
2022-09-09T16:54:55.504Z,97802.00
2022-09-09T16:57:31.578Z,97803.00
2022-09-09T17:00:08.108Z,97798.00
2022-09-09T17:02:44.314Z,97809.00
2022-09-09T17:05:19.380Z,97790.00
2022-09-09T17:07:58.368Z,97785.00
2022-09-09T17:10:33.340Z,97791.00
2022-09-09T17:13:08.342Z,97783.00
2022-09-09T17:15:44.014Z,97795.00
2022-09-09T17:18:19.267Z,97787.00
2022-09-09T17:20:54.473Z,97786.00
2022-09-09T17:23:29.971Z,97785.00
2022-09-09T17:26:10.588Z,97797.00
2022-09-09T17:28:46.646Z,97786.00
2022-09-09T17:31:21.733Z,97794.00
2022-09-09T17:33:57.227Z,97795.00
2022-09-09T17:36:35.266Z,97789.00
2022-09-09T17:39:10.217Z,97799.00
2022-09-09T17:41:45.414Z,97789.00
2022-09-09T17:44:20.482Z,97796.00
2022-09-09T17:46:57.005Z,97800.00
2022-09-09T17:49:31.982Z,97799.00
2022-09-09T17:52:06.972Z,97808.00
2022-09-09T17:54:42.510Z,97807.00
2022-09-09T17:57:20.310Z,97811.00
2022-09-09T17:59:55.336Z,97808.00
2022-09-09T18:02:30.347Z,97805.00
2022-09-09T18:05:06.334Z,97802.00
2022-09-09T18:07:41.320Z,97809.00
2022-09-09T18:10:16.349Z,97809.00
2022-09-09T18:12:51.452Z,97812.00
2022-09-09T18:15:46.142Z,97812.00
2022-09-09T18:18:22.450Z,97816.00
2022-09-09T18:21:07.422Z,97822.00
2022-09-09T18:23:43.351Z,97822.00
2022-09-09T18:26:24.764Z,97831.00
2022-09-09T18:29:04.771Z,97848.00
2022-09-09T18:31:42.462Z,97847.00
2022-09-09T18:34:19.971Z,97850.00
2022-09-09T18:36:56.096Z,97845.00
2022-09-09T18:39:31.559Z,97850.00
2022-09-09T18:42:06.765Z,97851.00
2022-09-09T18:44:42.871Z,97842.00
2022-09-09T18:47:18.041Z,97853.00
2022-09-09T18:49:53.012Z,97857.00
2022-09-09T18:52:28.081Z,97868.00
2022-09-09T18:55:03.073Z,97868.00
2022-09-09T18:57:38.830Z,97861.00
2022-09-09T19:00:14.178Z,97864.00
2022-09-09T19:02:52.918Z,97862.00
2022-09-09T19:05:27.844Z,97865.00
2022-09-09T19:08:03.052Z,97868.00
2022-09-09T19:10:38.020Z,97863.00
2022-09-09T19:13:14.108Z,97853.00
2022-09-09T19:15:49.386Z,97855.00
2022-09-09T19:18:24.421Z,97856.00
2022-09-09T19:21:22.743Z,97851.00
2022-09-09T19:24:06.596Z,97849.00
2022-09-09T19:26:45.945Z,97862.00
2022-09-09T19:29:24.103Z,97866.00
2022-09-09T19:32:42.433Z,97865.00
2022-09-09T19:34:57.600Z,97858.00
2022-09-09T19:37:33.584Z,97870.00
2022-09-09T19:40:11.193Z,97873.00
2022-09-09T19:42:46.306Z,97880.00
2022-09-09T19:45:21.563Z,97868.00
2022-09-09T19:47:56.869Z,97879.00
2022-09-09T19:50:36.812Z,97879.00
2022-09-09T19:53:11.709Z,97879.00
2022-09-09T19:55:51.124Z,97876.00
2022-09-09T19:58:26.054Z,97879.00
2022-09-09T20:01:11.194Z,97892.00
2022-09-09T20:03:49.877Z,97890.00
2022-09-09T20:06:28.826Z,97895.00
2022-09-09T20:09:06.038Z,97898.00
2022-09-09T20:11:43.168Z,97890.00
2022-09-09T20:14:18.376Z,97901.00
2022-09-09T20:16:53.915Z,97891.00
2022-09-09T20:19:29.649Z,97904.00
2022-09-09T20:22:04.619Z,97901.00
2022-09-09T20:24:39.569Z,97905.00
2022-09-09T20:27:14.572Z,97896.00
2022-09-09T20:29:49.871Z,97903.00
2022-09-09T20:32:24.894Z,97902.00
2022-09-09T20:34:59.884Z,97905.00
2022-09-09T20:37:34.856Z,97900.00
2022-09-09T20:40:10.216Z,97910.00
2022-09-09T20:42:45.135Z,97899.00
2022-09-09T20:45:20.011Z,97905.00
2022-09-09T20:47:57.108Z,97904.00
2022-09-09T20:50:35.239Z,97915.00
2022-09-09T20:53:10.133Z,97910.00
2022-09-09T20:55:44.978Z,97913.00
2022-09-09T20:58:19.890Z,97912.00
2022-09-09T21:01:00.594Z,97910.00
2022-09-09T21:03:39.515Z,97920.00
2022-09-09T21:06:16.215Z,97920.00
2022-09-09T21:08:51.389Z,97924.00
2022-09-09T21:11:26.492Z,97918.00
2022-09-09T21:14:02.498Z,97915.00
2022-09-09T21:16:37.402Z,97917.00
2022-09-09T21:19:12.246Z,97912.00
2022-09-09T21:21:47.866Z,97907.00
2022-09-09T21:24:23.013Z,97904.00
2022-09-09T21:27:00.673Z,97898.00
2022-09-09T21:29:35.620Z,97911.00
2022-09-09T21:32:10.500Z,97909.00
2022-09-09T21:34:45.839Z,97916.00
2022-09-09T21:37:20.953Z,97907.00
2022-09-09T21:39:55.857Z,97913.00
2022-09-09T21:42:30.758Z,97912.00
2022-09-09T21:45:06.735Z,97916.00
2022-09-09T21:47:46.920Z,97912.00
2022-09-09T21:50:26.667Z,97915.00
2022-09-09T21:53:03.867Z,97909.00
2022-09-09T21:55:42.253Z,97918.00
2022-09-09T21:58:18.522Z,97917.00
2022-09-09T22:00:53.397Z,97908.00
2022-09-09T22:03:28.573Z,97919.00
2022-09-09T22:06:06.564Z,97918.00
2022-09-09T22:08:41.637Z,97918.00
2022-09-09T22:11:22.437Z,97909.00
2022-09-09T22:13:57.554Z,97909.00
2022-09-09T22:16:32.396Z,97912.00
2022-09-09T22:19:07.629Z,97916.00
2022-09-09T22:21:42.694Z,97906.00
2022-09-09T22:24:17.943Z,97905.00
2022-09-09T22:26:55.731Z,97908.00
2022-09-09T22:29:31.789Z,97908.00
2022-09-09T22:32:07.419Z,97910.00
2022-09-09T22:34:42.364Z,97903.00
2022-09-09T22:37:17.767Z,97903.00
2022-09-09T22:39:52.658Z,97914.00
2022-09-09T22:42:27.621Z,97911.00
2022-09-09T22:45:02.526Z,97917.00
2022-09-09T22:47:40.593Z,97926.00
2022-09-09T22:50:15.599Z,97933.00
2022-09-09T22:52:52.625Z,97930.00
2022-09-09T22:55:27.692Z,97934.00
2022-09-09T22:58:03.371Z,97941.00
2022-09-09T23:00:41.727Z,97950.00
2022-09-09T23:03:16.790Z,97967.00
2022-09-09T23:06:01.036Z,97961.00
2022-09-09T23:08:37.588Z,97966.00
2022-09-09T23:11:14.115Z,97961.00
2022-09-09T23:13:54.393Z,97963.00
2022-09-09T23:16:47.355Z,97962.00
2022-09-09T23:19:22.239Z,97966.00
2022-09-09T23:21:58.320Z,97963.00
2022-09-09T23:24:33.147Z,97956.00
2022-09-09T23:27:08.003Z,97951.00
2022-09-09T23:29:42.865Z,97956.00
2022-09-09T23:32:18.400Z,97961.00
2022-09-09T23:34:53.287Z,97955.00
2022-09-09T23:37:31.415Z,97949.00
2022-09-09T23:40:07.802Z,97955.00
2022-09-09T23:42:42.678Z,97948.00
2022-09-09T23:45:18.448Z,97945.00
2022-09-09T23:47:53.672Z,97947.00
2022-09-09T23:50:28.605Z,97947.00
2022-09-09T23:53:03.659Z,97947.00
2022-09-09T23:55:39.553Z,97950.00
2022-09-09T23:58:17.548Z,97941.00
